This is the latest recevied weather packets stored in our database for station/object N2UGS-WX. If no packets are shown the sender has not sent any weather packets the latest 10 day(s).
| Time | Temp. | Humidity | Pressure | Rain* | Wind** | Luminosity | Snow |
|---|---|---|---|---|---|---|---|
| 1777862401 | 11.11° C | 57% | 1009.8 hPa | 0 mm | - | - | - |
| 1777861442 | 11.11° C | 56% | 1009.8 hPa | 0 mm | - | - | - |
| 1777859942 | 10.56° C | 59% | 1009.8 hPa | 0 mm | - | - | - |
| 1777859042 | 10.56° C | 59% | 1009.8 hPa | 0 mm | - | - | - |
| 1777858202 | 10.56° C | 60% | 1009.8 hPa | 0 mm | - | - | - |
| 1777856701 | 12.22° C | 49% | 1009.8 hPa | 0 mm | - | - | - |
| 1777855803 | 12.22° C | 50% | 1009.8 hPa | 0 mm | - | - | - |
| 1777854903 | 11.67° C | 51% | 1009.8 hPa | 0 mm | - | - | - |
| 1777854002 | 11.67° C | 53% | 1009.8 hPa | 0 mm | - | - | - |
| 1777853401 | 11.11° C | 56% | 1009.8 hPa | 0 mm | - | - | - |
| 1777852502 | 11.11° C | 56% | 1009.8 hPa | 0 mm | - | - | - |
| 1777851602 | 11.67° C | 55% | 1010.2 hPa | 0 mm | - | - | - |
| 1777850702 | 11.67° C | 57% | 1010.2 hPa | 0 mm | - | - | - |
| 1777849802 | 11.67° C | 58% | 1010.2 hPa | 0 mm | - | - | - |
| 1777848902 | 11.67° C | 58% | 1010.2 hPa | 0 mm | - | - | - |
| 1777848242 | 11.67° C | 56% | 1010.2 hPa | 0 mm | - | - | - |
| 1777847403 | 11.67° C | 57% | 1010.2 hPa | 0 mm | - | - | - |
| 1777846503 | 11.11° C | 59% | 1010.5 hPa | 0 mm | - | - | - |
| 1777845603 | 11.11° C | 57% | 1010.2 hPa | 0 mm | - | - | - |
| 1777844703 | 11.11° C | 57% | 1010.2 hPa | 0 mm | - | - | - |
| 1777843805 | 11.67° C | 58% | 1009.8 hPa | 0 mm | - | - | - |
| 1777842903 | 11.67° C | 57% | 1009.8 hPa | 0 mm | - | - | - |
| 1777842002 | 11.11° C | 60% | 1010.2 hPa | 0 mm | - | - | - |
| 1777841342 | 11.11° C | 60% | 1010.2 hPa | 0 mm | - | - | - |
| 1777840502 | 11.67° C | 57% | 1010.2 hPa | 0 mm | - | - | - |
* Rain latest hour (hover to see other rain measurements)
** Current wind speed in m/s (hover to see current wind gust speed)